createdAt,value
2023-02-03T00:03:11.955Z,-0.51
2023-02-03T00:18:11.725Z,-0.18
2023-02-03T00:33:11.554Z,0.52
2023-02-03T00:48:11.411Z,0.94
2023-02-03T01:03:17.296Z,1.19
2023-02-03T01:18:11.139Z,1.43
2023-02-03T01:33:10.980Z,1.62
2023-02-03T01:48:10.841Z,1.73
2023-02-03T02:03:10.712Z,1.73
2023-02-03T02:18:10.544Z,1.76
2023-02-03T02:33:10.416Z,1.64
2023-02-03T02:48:10.259Z,1.50
2023-02-03T03:03:10.095Z,1.33
2023-02-03T03:18:09.971Z,1.15
2023-02-03T03:33:09.813Z,1.25
2023-02-03T03:48:09.687Z,1.33
2023-02-03T04:03:09.590Z,1.43
2023-02-03T04:18:09.416Z,1.62
2023-02-03T04:33:09.248Z,1.76
2023-02-03T04:48:09.097Z,2.01
2023-02-03T05:03:08.963Z,2.35
2023-02-03T05:18:08.810Z,3.12
2023-02-03T05:33:08.646Z,3.49
2023-02-03T05:48:08.512Z,3.82
2023-02-03T06:03:08.362Z,4.15
2023-02-03T06:18:08.205Z,4.57
2023-02-03T06:33:08.049Z,5.19
2023-02-03T06:48:07.884Z,5.67
2023-02-03T07:03:07.734Z,6.07
2023-02-03T07:18:07.567Z,6.18
2023-02-03T07:33:07.877Z,6.28
2023-02-03T07:48:07.251Z,6.44
2023-02-03T08:03:07.086Z,6.65
2023-02-03T08:18:06.947Z,6.68
2023-02-03T08:33:06.780Z,6.63
2023-02-03T08:48:06.632Z,6.71
2023-02-03T09:03:06.467Z,6.79
2023-02-03T09:18:06.362Z,6.80
2023-02-03T09:33:06.156Z,6.90
2023-02-03T09:48:06.038Z,7.02
2023-02-03T10:03:05.874Z,7.22
2023-02-03T10:18:05.693Z,7.35
2023-02-03T10:33:05.567Z,7.58
2023-02-03T10:48:05.378Z,7.49
2023-02-03T11:03:05.266Z,6.48
2023-02-03T11:18:05.078Z,6.95
2023-02-03T11:33:04.920Z,7.17
2023-02-03T11:48:04.763Z,7.16
2023-02-03T12:03:04.649Z,7.50
2023-02-03T12:18:04.463Z,7.81
2023-02-03T12:33:04.304Z,7.97
2023-02-03T12:48:04.164Z,8.12
2023-02-03T13:03:04.017Z,5.71
2023-02-03T13:18:03.857Z,4.33
2023-02-03T13:33:03.694Z,5.16
2023-02-03T13:48:03.537Z,5.52
2023-02-03T14:03:03.382Z,5.93
2023-02-03T14:18:03.304Z,6.36
2023-02-03T14:33:03.088Z,6.69
2023-02-03T14:48:02.956Z,6.69
2023-02-03T15:03:02.799Z,6.79
2023-02-03T15:18:02.620Z,6.98
2023-02-03T15:33:03.466Z,6.86
2023-02-03T15:48:02.494Z,6.68
2023-02-03T16:03:02.234Z,6.56
2023-02-03T16:18:01.989Z,6.38
2023-02-03T16:33:01.840Z,6.43
2023-02-03T16:48:01.665Z,6.36
2023-02-03T17:03:01.563Z,6.33
2023-02-03T17:18:01.372Z,6.38
2023-02-03T17:33:01.841Z,6.40
2023-02-03T17:53:40.232Z,6.48
2023-02-03T18:08:41.444Z,6.47
2023-02-03T18:23:40.956Z,6.47
2023-02-03T18:38:40.757Z,6.47
2023-02-03T18:53:40.881Z,6.50
2023-02-03T19:08:40.581Z,6.48
2023-02-03T19:23:40.379Z,6.51
2023-02-03T19:38:40.528Z,6.32
2023-02-03T19:53:40.026Z,6.25
2023-02-03T20:08:39.869Z,6.19
2023-02-03T20:23:39.672Z,6.07
2023-02-03T20:38:39.492Z,5.83
2023-02-03T20:53:39.394Z,5.59
2023-02-03T21:08:39.194Z,5.53
2023-02-03T21:23:39.019Z,4.86
2023-02-03T21:38:38.865Z,3.85
2023-02-03T21:53:38.716Z,3.58
2023-02-03T22:08:38.534Z,3.31
2023-02-03T22:23:38.366Z,3.33
2023-02-03T22:38:38.206Z,3.23
2023-02-03T22:53:38.055Z,3.24
2023-02-03T23:08:37.896Z,3.05
2023-02-03T23:23:37.737Z,2.69
2023-02-03T23:38:37.573Z,2.48
2023-02-03T23:53:37.463Z,2.77
